»·PEaware :: DAL4243 KPHX-KLAX

DAL4243 :: KPHX-KLAX

FLIGHT INFORMATION

Flight Status: Arrived
Operator:
Delta Air Lines
More flights by this operator :: More flights under this callsign
Pilot: Sean Bradley (13609)
Aircraft: BOEING 757-200
(B752)
More flights by this aircraft type
Origin: KPHX Phoenix Sky Harbor Intl
United States
Destination: KLAX Los Angeles Intl
United States
More flights between these airports :: More routes between these airports
Route: +IZZZO5 MESSI PKE TNP SEAVU2
File this flight plan on PilotEdge
Remarks:
Altitude:
(Current/Filed)
30,000ft
Speed:
(Current/Filed)
420kts
Departed: 03-Jan-17 08:51 AM
Arrived: 03-Jan-17 10:14 AM
Distance/Time
Traveled:
321nm/1:23
Distance/Time
To Go:
Arrived

Flight Plot

Page will automatically refresh every two minutes.

Flight plan parsing failed; only flown route is shown


Map Options




Map Legend


Flown Route
Filed Route
Departure Airport
Arrival Airport
Navaid (VOR, NDB)
Fix

Horizontal Profiles

Position Reports

Time Latitude Longitude Heading Altitude Ground
Speed
03-Jan-17 08:12 33.437405 -112.008131 270 1130ft 0kts
03-Jan-17 08:13 33.437405 -112.008131 270 1130ft 0kts
03-Jan-17 08:14 33.437405 -112.008131 270 1130ft 0kts
03-Jan-17 08:15 33.437405 -112.008131 270 1130ft 0kts
03-Jan-17 08:16 33.437405 -112.008131 270 1130ft 0kts
03-Jan-17 08:17 33.437405 -112.008131 270 1130ft 0kts
03-Jan-17 08:18 33.437405 -112.008131 270 1130ft 0kts
03-Jan-17 08:19 33.437405 -112.008131 270 1130ft 0kts
03-Jan-17 08:20 33.437405 -112.008131 270 1130ft 0kts
03-Jan-17 08:21 33.437405 -112.008131 270 1130ft 0kts
03-Jan-17 08:22 33.437405 -112.008131 270 1130ft 0kts
03-Jan-17 08:23 33.437405 -112.008131 270 1130ft 0kts
03-Jan-17 08:24 33.437405 -112.008131 270 1130ft 0kts
03-Jan-17 08:25 33.437405 -112.008131 270 1130ft 0kts
03-Jan-17 08:26 33.437405 -112.008131 270 1130ft 0kts
03-Jan-17 08:27 33.437405 -112.008131 270 1130ft 0kts
03-Jan-17 08:28 33.437405 -112.008131 270 1130ft 0kts
03-Jan-17 08:29 33.437405 -112.008131 270 1130ft 0kts
03-Jan-17 08:30 33.437405 -112.008131 270 1130ft 0kts
03-Jan-17 08:31 33.437405 -112.008131 270 1130ft 0kts
03-Jan-17 08:32 33.437405 -112.008105 270 1130ft 0kts
03-Jan-17 08:33 33.437403 -112.007558 270 1130ft 1kts
03-Jan-17 08:34 33.437265 -112.007353 0 1130ft 0kts
03-Jan-17 08:35 33.437265 -112.007353 0 1130ft 0kts
03-Jan-17 08:36 33.437265 -112.007353 0 1130ft 0kts
03-Jan-17 08:37 33.437265 -112.007353 0 1130ft 0kts
03-Jan-17 08:38 33.437265 -112.007353 0 1130ft 0kts
03-Jan-17 08:39 33.437265 -112.007353 0 1130ft 0kts
03-Jan-17 08:40 33.437283 -112.007353 359 1130ft 1kts
03-Jan-17 08:41 33.438029 -112.007357 0 1132ft 0kts
03-Jan-17 08:42 33.438040 -112.007358 0 1132ft 0kts
03-Jan-17 08:43 33.438053 -112.007358 0 1132ft 1kts
03-Jan-17 08:44 33.438969 -112.007663 286 1133ft 10kts
03-Jan-17 08:45 33.439019 -112.011044 269 1130ft 14kts
03-Jan-17 08:46 33.439018 -112.014892 269 1127ft 17kts
03-Jan-17 08:47 33.439008 -112.019683 271 1124ft 18kts
03-Jan-17 08:48 33.439028 -112.024585 269 1120ft 21kts
03-Jan-17 08:49 33.439140 -112.029389 310 1117ft 9kts
03-Jan-17 08:50 33.440843 -112.028904 88 1117ft 11kts
03-Jan-17 08:51 33.440709 -111.997503 91 1783ft 201kts
03-Jan-17 08:52 33.437762 -111.938727 96 4299ft 220kts
03-Jan-17 08:53 33.432891 -111.876105 124 6188ft 233kts
03-Jan-17 08:54 33.390378 -111.844941 192 8542ft 231kts
03-Jan-17 08:55 33.355138 -111.889790 273 11314ft 223kts
03-Jan-17 08:56 33.362609 -111.961565 278 13167ft 268kts
03-Jan-17 08:57 33.374180 -112.045024 278 14214ft 338kts
03-Jan-17 08:58 33.386845 -112.135733 278 17284ft 336kts
03-Jan-17 08:59 33.398735 -112.220714 277 19718ft 338kts
03-Jan-17 09:00 33.412609 -112.317397 276 22063ft 341kts
03-Jan-17 09:01 33.424119 -112.401430 275 23809ft 343kts
03-Jan-17 09:02 33.435622 -112.486422 275 24026ft 344kts
03-Jan-17 09:03 33.447534 -112.570299 276 24020ft 344kts
03-Jan-17 09:04 33.452299 -112.668811 268 24436ft 346kts
03-Jan-17 09:05 33.453054 -112.738012 268 25930ft 345kts
03-Jan-17 09:06 33.458018 -112.807010 280 27122ft 355kts
03-Jan-17 09:07 33.488509 -112.895504 286 29156ft 350kts
03-Jan-17 09:08 33.522787 -112.990106 285 30232ft 339kts
03-Jan-17 09:09 33.551348 -113.071228 285 30245ft 339kts
03-Jan-17 09:10 33.576757 -113.144037 285 30244ft 339kts
03-Jan-17 09:11 33.608447 -113.235247 285 30242ft 339kts
03-Jan-17 09:12 33.643214 -113.335671 284 30239ft 340kts
03-Jan-17 09:13 33.674336 -113.425852 284 30237ft 340kts
03-Jan-17 09:14 33.708435 -113.524953 284 30235ft 340kts
03-Jan-17 09:15 33.742885 -113.625389 284 30233ft 340kts
03-Jan-17 09:16 33.775449 -113.720607 284 30246ft 338kts
03-Jan-17 09:17 33.808684 -113.817755 284 30244ft 340kts
03-Jan-17 09:18 33.842887 -113.916044 284 30242ft 340kts
03-Jan-17 09:19 33.877071 -114.014676 284 30239ft 340kts
03-Jan-17 09:20 33.910270 -114.113402 284 30237ft 340kts
03-Jan-17 09:21 33.943821 -114.211482 284 30235ft 340kts
03-Jan-17 09:22 33.977570 -114.309874 284 30233ft 341kts
03-Jan-17 09:23 34.011432 -114.408815 284 30231ft 341kts
03-Jan-17 09:24 34.044134 -114.507310 284 30229ft 341kts
03-Jan-17 09:25 34.077458 -114.605988 284 30226ft 341kts
03-Jan-17 09:26 34.102100 -114.699742 269 30249ft 330kts
03-Jan-17 09:27 34.104390 -114.805380 267 30240ft 330kts
03-Jan-17 09:28 34.105817 -114.907076 267 30237ft 330kts
03-Jan-17 09:29 34.107084 -115.013096 267 30235ft 330kts
03-Jan-17 09:30 34.108245 -115.120594 267 30232ft 330kts
03-Jan-17 09:31 34.109276 -115.225046 267 30230ft 330kts
03-Jan-17 09:32 34.110245 -115.332290 267 30227ft 330kts
03-Jan-17 09:33 34.111714 -115.440381 267 30260ft 330kts
03-Jan-17 09:34 34.115510 -115.551165 268 30259ft 331kts
03-Jan-17 09:35 34.116243 -115.658778 265 30266ft 329kts
03-Jan-17 09:36 34.114654 -115.766001 261 30276ft 329kts
03-Jan-17 09:37 34.099878 -115.866961 258 30275ft 328kts
03-Jan-17 09:38 34.086305 -115.957534 258 30272ft 328kts
03-Jan-17 09:39 34.072352 -116.047213 258 30270ft 328kts
03-Jan-17 09:40 34.057659 -116.144142 258 30188ft 329kts
03-Jan-17 09:41 34.043140 -116.240392 258 29923ft 330kts
03-Jan-17 09:42 34.030345 -116.324993 258 28895ft 332kts
03-Jan-17 09:43 34.018909 -116.401036 259 27312ft 328kts
03-Jan-17 09:44 34.006430 -116.484780 261 25332ft 326kts
03-Jan-17 09:45 33.999762 -116.572763 263 23951ft 322kts
03-Jan-17 09:46 33.992659 -116.666387 262 22712ft 320kts
03-Jan-17 09:47 33.986578 -116.750627 263 21625ft 320kts
03-Jan-17 09:48 33.979085 -116.845500 263 20397ft 321kts
03-Jan-17 09:49 33.969421 -116.947197 262 19111ft 320kts
03-Jan-17 09:50 33.962929 -117.021315 265 18200ft 320kts
03-Jan-17 09:51 33.988375 -117.095607 312 17225ft 338kts
03-Jan-17 09:52 34.026876 -117.167145 272 16324ft 317kts
03-Jan-17 09:53 34.011052 -117.226425 233 15733ft 321kts
03-Jan-17 09:54 33.973520 -117.273009 230 14953ft 322kts
03-Jan-17 09:55 33.944708 -117.327176 251 14101ft 315kts
03-Jan-17 09:56 33.944155 -117.400190 290 12882ft 315kts
03-Jan-17 09:57 33.964813 -117.459424 290 12086ft 312kts
03-Jan-17 09:58 33.992107 -117.539127 291 10947ft 310kts
03-Jan-17 09:59 34.012681 -117.611520 270 10156ft 279kts
03-Jan-17 10:00 34.008007 -117.676083 264 10018ft 255kts
03-Jan-17 10:01 34.002869 -117.732316 263 9557ft 254kts
03-Jan-17 10:02 33.996781 -117.795780 262 8801ft 255kts
03-Jan-17 10:03 33.989084 -117.864979 263 7937ft 251kts
03-Jan-17 10:04 33.982979 -117.927443 263 7518ft 239kts
03-Jan-17 10:05 33.977087 -117.987309 264 6684ft 234kts
03-Jan-17 10:06 33.971536 -118.043469 265 5734ft 220kts
03-Jan-17 10:07 33.965733 -118.102038 265 4768ft 214kts
03-Jan-17 10:08 33.960475 -118.154462 266 3967ft 179kts
03-Jan-17 10:09 33.955792 -118.201032 265 3126ft 172kts
03-Jan-17 10:10 33.951417 -118.244606 265 2429ft 166kts
03-Jan-17 10:11 33.946748 -118.290579 264 1645ft 149kts
03-Jan-17 10:12 33.942521 -118.331185 263 963ft 151kts
03-Jan-17 10:13 33.938426 -118.372257 264 275ft 140kts
03-Jan-17 10:14 33.936247 -118.398565 290 117ft 18kts
03-Jan-17 10:15 33.936578 -118.399589 285 119ft 0kts
03-Jan-17 10:16 33.936646 -118.399991 277 120ft 9kts
03-Jan-17 10:17 33.936721 -118.403680 305 124ft 15kts
03-Jan-17 10:18 33.938157 -118.404479 308 125ft 0kts
03-Jan-17 10:19 33.938208 -118.404516 337 125ft 2kts
03-Jan-17 10:20 33.938724 -118.402953 20 123ft 9kts
03-Jan-17 10:21 33.940685 -118.403467 265 123ft 6kts
03-Jan-17 10:22 33.940654 -118.403770 262 123ft 0kts
03-Jan-17 10:23 33.940654 -118.403770 262 123ft 0kts
03-Jan-17 10:24 33.940654 -118.403770 262 123ft 0kts

Navigation Log

Ident Type
Flight plan parsing failed, navigation log unavailable